Time;durP1;ratioP1;P1;durP2;ratioP2;P2;SDS_P1;SDS_P2;PMS_P1;PMS_P2;Temp;Humidity;BMP_temperature;BMP_pressure;BME280_temperature;BME280_humidity;BME280_pressure;Samples;Min_cycle;Max_cycle;Signal;HPM_P1;HPM_P2
2024/03/20 00:01:46;;;;;;;3.67;1.47;;;;;;;17.48;59.06;101702.31;10449732;28;20114;-59
2024/03/20 00:06:46;;;;;;;1.75;1.05;;;;;;;17.46;58.56;101697.22;10448255;28;20270;-60
2024/03/20 00:11:49;;;;;;;2.93;1.30;;;;;;;17.48;59.06;101705.00;10449319;28;20041;-60
2024/03/20 00:16:50;;;;;;;3.55;1.23;;;;;;;17.47;58.16;101706.09;10448944;28;20283;-60
2024/03/20 00:21:50;;;;;;;3.10;1.40;;;;;;;17.50;58.93;101708.22;10447982;28;20025;-59
2024/03/20 00:26:51;;;;;;;3.13;1.45;;;;;;;17.50;58.83;101711.72;10449038;28;20263;-60
2024/03/20 00:31:52;;;;;;;2.43;1.10;;;;;;;17.46;58.37;101705.28;10461700;28;20424;-60
2024/03/20 00:36:52;;;;;;;2.40;1.00;;;;;;;17.44;58.61;101704.75;10447894;28;20555;-59
2024/03/20 00:41:53;;;;;;;2.53;1.37;;;;;;;17.46;57.86;101701.78;10447707;28;20098;-61
2024/03/20 00:46:53;;;;;;;4.07;1.63;;;;;;;17.47;58.87;101700.72;10446558;28;20656;-60
2024/03/20 00:51:54;;;;;;;2.40;1.23;;;;;;;17.47;58.48;101701.53;10453587;28;20032;-60
2024/03/20 00:56:54;;;;;;;1.90;1.07;;;;;;;17.44;58.41;101694.00;10454150;28;20287;-60
2024/03/20 01:01:54;;;;;;;4.53;1.93;;;;;;;17.45;57.66;101702.88;10422681;28;20375;-60
2024/03/20 01:06:55;;;;;;;4.33;1.80;;;;;;;17.42;58.89;101693.47;10417603;28;20021;-60
2024/03/20 01:11:55;;;;;;;2.67;1.37;;;;;;;17.41;58.81;101688.38;10453825;28;20307;-60
2024/03/20 01:16:56;;;;;;;1.70;1.17;;;;;;;17.40;57.85;101698.28;10454741;28;20635;-60
2024/03/20 01:21:56;;;;;;;2.87;1.00;;;;;;;17.44;57.73;101698.56;10455077;28;20024;-60
2024/03/20 01:26:56;;;;;;;3.05;1.45;;;;;;;17.44;58.60;101688.66;10454374;28;20274;-60
2024/03/20 01:31:56;;;;;;;1.97;1.03;;;;;;;17.42;58.32;101680.06;10454740;28;20373;-60
2024/03/20 01:36:57;;;;;;;2.03;1.00;;;;;;;17.43;57.83;101687.03;10425016;28;20296;-60
2024/03/20 01:41:57;;;;;;;2.30;1.00;;;;;;;17.39;58.11;101683.25;10413080;28;20338;-61
2024/03/20 01:46:57;;;;;;;2.40;1.07;;;;;;;17.40;58.82;101686.75;10412679;28;21015;-60
2024/03/20 01:51:59;;;;;;;2.90;1.20;;;;;;;17.38;58.41;101687.00;10412792;28;20275;-60
2024/03/20 01:57:00;;;;;;;1.95;1.20;;;;;;;17.38;57.82;101680.84;10410785;28;20355;-60
2024/03/20 02:02:00;;;;;;;2.08;1.10;;;;;;;17.36;56.82;101675.75;10410637;28;20025;-60
2024/03/20 02:07:00;;;;;;;3.17;1.60;;;;;;;17.38;57.05;101670.13;10433841;28;20032;-60
2024/03/20 02:12:00;;;;;;;1.63;1.00;;;;;;;17.40;57.73;101676.81;10438127;28;20314;-60
2024/03/20 02:17:01;;;;;;;2.07;1.10;;;;;;;17.37;57.59;101669.31;10452561;28;20291;-60
2024/03/20 02:22:02;;;;;;;2.13;1.10;;;;;;;17.36;58.47;101664.22;10452617;28;20372;-60
2024/03/20 02:27:02;;;;;;;2.75;1.13;;;;;;;17.41;57.38;101673.09;10452215;28;20021;-59
2024/03/20 02:32:03;;;;;;;2.45;0.90;;;;;;;17.39;58.19;101667.16;10451571;28;20033;-60
2024/03/20 02:37:04;;;;;;;1.63;0.88;;;;;;;17.36;58.29;101665.03;10410354;28;20369;-59
2024/03/20 02:42:04;;;;;;;3.40;1.52;;;;;;;17.36;58.04;101664.22;10409601;28;20087;-60
2024/03/20 02:47:04;;;;;;;2.47;1.30;;;;;;;17.34;57.45;101669.84;10408758;28;20040;-60
2024/03/20 02:52:05;;;;;;;2.45;1.20;;;;;;;17.31;58.57;101667.69;10410043;28;20461;-59
2024/03/20 02:57:06;;;;;;;2.65;1.17;;;;;;;17.30;57.47;101671.47;10435431;28;20414;-60
2024/03/20 03:02:06;;;;;;;2.08;1.05;;;;;;;17.28;57.54;101678.13;10409958;28;20033;-60
2024/03/20 03:07:06;;;;;;;1.35;0.80;;;;;;;17.31;58.73;101681.09;10409499;28;20617;-60
2024/03/20 03:12:07;;;;;;;2.85;1.30;;;;;;;17.38;58.04;101686.22;10431934;28;20516;-60
2024/03/20 03:17:08;;;;;;;1.95;1.40;;;;;;;17.40;57.21;101687.53;10448795;28;20108;-60
2024/03/20 03:22:08;;;;;;;2.00;1.27;;;;;;;17.42;57.38;101690.78;10450660;28;20043;-60
2024/03/20 03:27:08;;;;;;;2.07;0.80;;;;;;;17.47;57.22;101682.75;10448881;28;20358;-60
2024/03/20 03:32:08;;;;;;;2.03;1.23;;;;;;;17.48;57.71;101670.16;10462473;28;20953;-60
2024/03/20 03:37:09;;;;;;;1.57;0.90;;;;;;;17.45;56.56;101681.41;10449721;28;20295;-60
2024/03/20 03:42:09;;;;;;;1.40;0.80;;;;;;;17.40;57.36;101676.03;10448830;28;20624;-60
2024/03/20 03:47:09;;;;;;;2.13;0.90;;;;;;;17.37;57.96;101688.09;10448140;28;20275;-60
2024/03/20 03:52:10;;;;;;;1.80;0.90;;;;;;;17.33;58.46;101684.31;10448659;28;20298;-60
2024/03/20 03:57:10;;;;;;;2.20;1.00;;;;;;;17.34;58.50;101675.22;10414376;28;20026;-60
2024/03/20 04:02:11;;;;;;;2.47;1.07;;;;;;;17.35;57.63;101668.78;10406515;28;20342;-60
2024/03/20 04:07:11;;;;;;;1.75;1.00;;;;;;;17.36;57.46;101675.75;10404782;28;20272;-60
2024/03/20 04:12:12;;;;;;;2.05;0.93;;;;;;;17.34;57.12;101677.91;10427727;28;20463;-60
2024/03/20 04:17:12;;;;;;;1.48;0.82;;;;;;;17.30;57.99;101668.78;10445623;28;20256;-60
2024/03/20 04:22:12;;;;;;;1.80;1.20;;;;;;;17.36;57.51;101678.44;10442614;28;20036;-59
2024/03/20 04:27:13;;;;;;;1.80;0.70;;;;;;;17.43;57.94;101678.19;10448576;28;20030;-59
2024/03/20 04:32:13;;;;;;;1.70;1.17;;;;;;;17.47;58.25;101680.06;10452489;28;20690;-58
2024/03/20 04:37:13;;;;;;;3.60;1.30;;;;;;;17.44;57.51;101674.44;10452216;28;20321;-59
2024/03/20 04:42:14;;;;;;;2.00;0.90;;;;;;;17.41;57.91;101675.78;10450542;28;20279;-58
2024/03/20 04:47:14;;;;;;;3.07;1.00;;;;;;;17.45;58.15;101676.06;10451854;28;20796;-58
2024/03/20 04:52:14;;;;;;;2.13;1.00;;;;;;;17.39;57.23;101675.22;10451857;28;20578;-58
2024/03/20 04:57:15;;;;;;;2.30;1.30;;;;;;;17.42;57.31;101672.03;10452121;28;20283;-58
2024/03/20 05:02:15;;;;;;;1.83;1.03;;;;;;;17.38;57.04;101670.94;10452699;28;20271;-58
2024/03/20 05:07:16;;;;;;;1.20;0.93;;;;;;;17.36;57.75;101672.25;10435579;28;20280;-58
2024/03/20 05:12:16;;;;;;;1.95;0.90;;;;;;;17.32;57.48;101677.34;10455176;28;20770;-58
2024/03/20 05:17:16;;;;;;;1.60;1.00;;;;;;;17.31;57.38;101681.09;10453599;28;20020;-58
2024/03/20 05:22:17;;;;;;;2.90;1.10;;;;;;;17.33;57.93;101678.97;10455392;28;20325;-58
2024/03/20 05:27:18;;;;;;;2.83;0.93;;;;;;;17.30;57.24;101681.38;10454699;28;20336;-59
2024/03/20 05:32:18;;;;;;;1.30;0.80;;;;;;;17.33;57.61;101678.97;10467060;28;20276;-59
2024/03/20 05:37:18;;;;;;;2.93;1.20;;;;;;;17.39;57.07;101682.44;10449373;28;20024;-58
2024/03/20 05:42:19;;;;;;;2.63;1.07;;;;;;;17.41;56.44;101675.78;10452331;28;20267;-58
2024/03/20 05:47:20;;;;;;;1.42;0.70;;;;;;;17.42;56.92;101687.31;10453178;28;20279;-58
2024/03/20 05:52:20;;;;;;;2.60;1.40;;;;;;;17.40;57.17;101690.22;10453630;28;20024;-59
2024/03/20 05:57:20;;;;;;;1.38;0.90;;;;;;;17.38;56.72;101692.38;10453390;28;20357;-59
2024/03/20 06:02:21;;;;;;;1.90;1.10;;;;;;;17.32;57.84;101692.63;10453305;28;20353;-59
2024/03/20 06:07:21;;;;;;;3.30;1.13;;;;;;;17.35;57.20;101694.78;10453553;28;20499;-59
2024/03/20 06:12:22;;;;;;;3.67;1.20;;;;;;;17.31;58.46;101697.19;10451146;28;20048;-60
2024/03/20 06:17:22;;;;;;;18.97;2.53;;;;;;;17.26;58.54;101699.84;10451647;28;20287;-62
2024/03/20 06:22:23;;;;;;;4.35;1.15;;;;;;;17.35;57.93;101700.16;10435120;28;20082;-62
2024/03/20 06:27:24;;;;;;;8.60;1.70;;;;;;;17.39;59.11;101704.72;10451529;28;20100;-61
2024/03/20 06:32:25;;;;;;;18.17;2.87;;;;;;;17.45;58.90;101700.97;10450658;28;20398;-59
2024/03/20 06:37:26;;;;;;;11.48;2.78;;;;;;;17.44;58.55;101707.41;10442883;28;20354;-60
2024/03/20 06:42:27;;;;;;;17.30;2.63;;;;;;;17.45;59.20;101710.91;10410184;28;20029;-60
2024/03/20 06:47:27;;;;;;;17.85;3.00;;;;;;;17.41;59.20;101715.19;10408760;28;20334;-58
2024/03/20 06:52:34;;;;;;;18.33;2.75;;;;;;;17.45;59.31;101719.75;10410126;28;20029;-57
2024/03/20 06:57:34;;;;;;;11.32;2.83;;;;;;;17.40;59.06;101726.97;10410204;28;20029;-56
2024/03/20 07:02:35;;;;;;;10.93;2.30;;;;;;;17.35;59.75;101727.75;10409711;28;20025;-58
2024/03/20 07:07:35;;;;;;;18.33;2.70;;;;;;;17.36;59.55;101731.25;10409685;28;20284;-58
2024/03/20 07:12:36;;;;;;;20.40;4.00;;;;;;;17.38;59.65;101737.16;10436370;28;20817;-59
2024/03/20 07:17:37;;;;;;;14.43;2.90;;;;;;;17.43;59.62;101734.50;10450589;28;20306;-57
2024/03/20 07:22:39;;;;;;;12.73;2.67;;;;;;;17.45;59.79;101733.16;10450236;28;20048;-57
2024/03/20 07:27:39;;;;;;;22.85;4.43;;;;;;;17.47;59.65;101733.69;10450316;28;20020;-61
2024/03/20 07:32:40;;;;;;;14.43;3.27;;;;;;;17.48;59.97;101734.50;10463281;28;20055;-59
2024/03/20 07:37:40;;;;;;;20.02;4.45;;;;;;;17.52;60.23;101732.91;10449969;28;20294;-60
2024/03/20 07:42:42;;;;;;;24.70;4.47;;;;;;;17.50;60.49;101727.00;10431884;28;20365;-62
2024/03/20 07:47:42;;;;;;;22.75;4.57;;;;;;;17.49;60.31;101733.44;10449107;28;20029;-62
2024/03/20 07:52:42;;;;;;;17.55;4.10;;;;;;;17.47;60.56;101728.34;10449634;28;20366;-61
2024/03/20 07:57:44;;;;;;;19.08;3.97;;;;;;;17.50;59.47;101741.22;10447528;28;20035;-61
2024/03/20 08:02:44;;;;;;;17.00;3.87;;;;;;;17.50;60.04;101751.13;10454408;28;20028;-60
2024/03/20 08:07:45;;;;;;;18.83;4.53;;;;;;;17.50;59.86;101751.13;10451982;28;20272;-59
2024/03/20 08:12:45;;;;;;;23.47;3.73;;;;;;;17.42;59.81;101755.16;10455549;28;20525;-60
2024/03/20 08:17:46;;;;;;;26.48;4.90;;;;;;;17.32;60.82;101781.91;10452850;28;20296;-61
2024/03/20 08:22:46;;;;;;;16.77;3.05;;;;;;;17.32;59.95;101757.78;10411776;28;20029;-61
2024/03/20 08:27:46;;;;;;;53.20;5.33;;;;;;;17.29;61.01;101755.63;10420750;28;20056;-61
2024/03/20 08:32:47;;;;;;;45.07;5.93;;;;;;;17.29;60.99;101762.84;10468646;28;20681;-61
2024/03/20 08:37:47;;;;;;;60.97;8.40;;;;;;;17.30;60.61;101762.59;10455462;28;20353;-62
2024/03/20 08:42:47;;;;;;;55.47;7.40;;;;;;;17.30;61.83;101757.25;10454417;28;20043;-63
2024/03/20 08:47:48;;;;;;;36.17;7.40;;;;;;;17.31;60.90;101758.03;10441273;28;20309;-63
2024/03/20 08:52:48;;;;;;;58.93;10.03;;;;;;;17.32;61.87;101763.13;10414844;28;20287;-63
2024/03/20 08:57:48;;;;;;;50.43;7.27;;;;;;;17.33;61.72;101766.63;10430176;28;20284;-62
2024/03/20 09:02:49;;;;;;;72.13;11.23;;;;;;;17.30;61.58;101767.97;10414562;28;20346;-62
2024/03/20 09:07:49;;;;;;;38.30;9.80;;;;;;;17.28;61.57;101769.25;10414710;28;20325;-62
2024/03/20 09:12:49;;;;;;;60.38;10.13;;;;;;;17.24;61.09;101758.25;10440700;28;20295;-63
2024/03/20 09:17:52;;;;;;;38.45;8.27;;;;;;;17.19;60.92;101759.06;10455249;28;20024;-62
2024/03/20 09:22:52;;;;;;;39.13;7.18;;;;;;;17.19;60.91;101752.88;10455104;28;20029;-62
2024/03/20 09:27:53;;;;;;;35.85;6.47;;;;;;;17.18;60.64;101749.41;10453957;28;20043;-62
2024/03/20 09:32:53;;;;;;;32.43;6.63;;;;;;;17.19;61.02;101750.22;10449528;28;20028;-63
2024/03/20 09:37:53;;;;;;;33.00;7.50;;;;;;;17.19;60.37;101745.66;10454644;28;20291;-63
2024/03/20 09:42:54;;;;;;;26.57;6.10;;;;;;;17.19;61.43;101739.50;10417231;28;20983;-63
2024/03/20 09:47:55;;;;;;;25.42;5.95;;;;;;;17.25;60.29;101738.44;10426990;28;20291;-61
2024/03/20 09:52:56;;;;;;;17.25;5.60;;;;;;;17.24;60.83;101736.81;10436337;28;20056;-61
2024/03/20 09:57:56;;;;;;;21.75;5.90;;;;;;;17.25;61.29;101733.88;10411368;28;20037;-62
2024/03/20 10:02:56;;;;;;;19.35;5.28;;;;;;;17.28;60.61;101729.84;10410776;28;20025;-62
2024/03/20 10:07:57;;;;;;;27.08;7.28;;;;;;;17.34;60.29;101736.88;10411163;28;20028;-59
2024/03/20 10:12:57;;;;;;;24.40;5.30;;;;;;;17.38;61.04;101731.78;10440553;28;20053;-61
2024/03/20 10:17:58;;;;;;;28.33;6.63;;;;;;;17.39;60.69;101726.16;10453017;28;20476;-60
2024/03/20 10:22:59;;;;;;;25.33;6.28;;;;;;;17.41;61.05;101726.72;10450840;28;20039;-63
2024/03/20 10:28:00;;;;;;;22.90;5.72;;;;;;;17.40;60.54;101721.59;10451363;28;20380;-62
2024/03/20 10:33:02;;;;;;;17.55;5.47;;;;;;;17.38;61.10;101723.75;10447331;28;20025;-61
2024/03/20 10:38:02;;;;;;;23.65;7.22;;;;;;;17.43;61.06;101729.13;10440080;28;20240;-62
2024/03/20 10:43:04;;;;;;;18.80;5.13;;;;;;;17.42;60.85;101724.84;10410616;28;20017;-62
2024/03/20 10:48:12;;;;;;;22.13;6.45;;;;;;;17.45;60.39;101727.00;10409161;28;20037;-62
2024/03/20 10:53:14;;;;;;;17.13;5.57;;;;;;;17.44;60.16;101723.50;10419443;28;20081;-63
2024/03/20 10:58:18;;;;;;;22.08;7.22;;;;;;;17.46;61.03;101726.72;10432566;28;20029;-63
2024/03/20 11:03:40;;;;;;;18.65;5.72;;;;;;;17.49;60.72;101720.84;10448942;28;20073;-63
2024/03/20 11:08:53;;;;;;;15.13;5.53;;;;;;;17.52;60.73;101722.16;10449863;28;20072;-63
2024/03/20 11:13:54;;;;;;;17.63;5.50;;;;;;;17.54;60.22;101722.75;10449421;28;20179;-63
2024/03/20 11:18:56;;;;;;;13.77;4.25;;;;;;;17.57;60.22;101710.66;10448704;28;20036;-62
2024/03/20 11:23:57;;;;;;;11.52;4.85;;;;;;;17.57;60.71;101716.84;10449016;28;20104;-62
2024/03/20 11:28:59;;;;;;;17.25;5.15;;;;;;;17.60;60.73;101713.63;10448035;28;20039;-62
2024/03/20 11:33:59;;;;;;;16.63;5.00;;;;;;;17.61;60.28;101719.78;10461453;28;20025;-63
2024/03/20 11:39:01;;;;;;;12.05;4.05;;;;;;;17.60;61.02;101723.53;10448521;28;20324;-63
2024/03/20 11:44:01;;;;;;;9.90;3.75;;;;;;;17.60;60.70;101721.66;10464016;28;20053;-62
2024/03/20 11:49:03;;;;;;;11.03;3.03;;;;;;;17.60;59.34;101724.34;10448026;28;20443;-62
2024/03/20 11:54:04;;;;;;;8.90;4.10;;;;;;;17.59;59.55;101720.06;10446759;28;20374;-62
2024/03/20 11:59:04;;;;;;;8.55;4.13;;;;;;;17.58;59.88;101717.66;10447925;28;20024;-62
2024/03/20 12:04:05;;;;;;;13.23;3.67;;;;;;;17.56;60.89;101707.19;10446662;28;20021;-63
2024/03/20 12:09:15;;;;;;;9.82;3.65;;;;;;;17.53;60.14;101711.22;10448885;28;20290;-62
2024/03/20 12:14:16;;;;;;;8.13;2.95;;;;;;;17.52;60.15;101717.66;10419975;28;20045;-62
2024/03/20 12:19:16;;;;;;;8.07;3.30;;;;;;;17.52;60.83;101709.59;10447615;28;20029;-63
2024/03/20 12:24:16;;;;;;;9.02;3.13;;;;;;;17.50;60.63;101709.03;10447914;28;20444;-62
2024/03/20 12:29:18;;;;;;;8.23;2.90;;;;;;;17.51;60.17;101710.63;10447243;28;20541;-62
2024/03/20 12:34:18;;;;;;;10.70;3.97;;;;;;;17.51;60.83;101707.16;10460923;28;20380;-63
2024/03/20 12:39:19;;;;;;;7.17;3.53;;;;;;;17.51;60.23;101702.59;10447846;28;20385;-63
2024/03/20 12:44:19;;;;;;;6.55;3.65;;;;;;;17.56;60.70;101701.81;10449026;28;20363;-63
2024/03/20 12:49:20;;;;;;;8.05;2.60;;;;;;;17.60;60.05;101691.38;10455791;28;20368;-63
2024/03/20 12:54:25;;;;;;;5.47;3.10;;;;;;;17.60;60.03;101681.44;10454784;28;20476;-62
2024/03/20 12:59:27;;;;;;;6.10;3.40;;;;;;;17.62;60.18;101673.13;10453756;28;20027;-62
2024/03/20 13:04:27;;;;;;;8.70;2.63;;;;;;;17.65;60.74;101680.66;10454416;28;20086;-62
2024/03/20 13:09:28;;;;;;;9.00;2.20;;;;;;;17.67;59.32;101665.91;10455029;28;20033;-62
2024/03/20 13:14:28;;;;;;;4.07;2.17;;;;;;;17.71;60.36;101671.56;10453729;28;20295;-63
2024/03/20 13:19:29;;;;;;;6.65;2.63;;;;;;;17.72;60.54;101667.81;10454604;28;20017;-62
2024/03/20 13:24:29;;;;;;;5.25;2.00;;;;;;;17.73;60.29;101664.88;10453468;28;20029;-62
2024/03/20 13:29:30;;;;;;;3.30;2.00;;;;;;;17.75;60.64;101669.97;10453135;28;20106;-63
2024/03/20 13:34:31;;;;;;;4.30;2.28;;;;;;;17.75;59.73;101673.44;10451611;28;20025;-62
2024/03/20 13:39:44;;;;;;;3.00;1.97;;;;;;;17.78;60.53;101662.22;10453903;28;20033;-63
2024/03/20 13:44:44;;;;;;;6.05;2.35;;;;;;;17.82;60.15;101657.91;10451691;28;20332;-63
2024/03/20 13:49:45;;;;;;;6.73;2.53;;;;;;;17.89;60.15;101660.34;10451938;28;20387;-63
2024/03/20 13:54:46;;;;;;;3.42;2.03;;;;;;;17.91;60.20;101654.69;10451331;28;20287;-62
2024/03/20 13:59:46;;;;;;;3.47;1.70;;;;;;;17.93;59.09;101655.22;10452388;28;20078;-63
2024/03/20 14:04:47;;;;;;;4.23;1.50;;;;;;;17.93;59.18;101658.72;10450680;28;20276;-62
2024/03/20 14:09:48;;;;;;;3.78;1.73;;;;;;;17.89;59.44;101654.16;10451007;28;20872;-62
2024/03/20 14:14:49;;;;;;;3.05;1.55;;;;;;;17.92;59.84;101653.63;10450004;28;20125;-62
2024/03/20 14:19:49;;;;;;;4.28;1.52;;;;;;;17.95;59.75;101655.75;10451892;28;20104;-62
2024/03/20 14:24:50;;;;;;;5.70;1.88;;;;;;;17.93;60.76;101649.88;10451646;28;20469;-62
2024/03/20 14:29:50;;;;;;;4.87;1.20;;;;;;;17.93;59.93;101641.81;10451592;28;20021;-63
2024/03/20 14:34:50;;;;;;;3.65;1.60;;;;;;;17.92;60.77;101635.66;10449549;28;20295;-62
2024/03/20 14:39:51;;;;;;;6.90;1.77;;;;;;;17.92;60.36;101643.69;10451137;28;20090;-62
2024/03/20 14:44:51;;;;;;;6.40;1.83;;;;;;;17.92;59.83;101634.84;10449306;28;20325;-63
2024/03/20 14:49:52;;;;;;;3.57;1.57;;;;;;;17.91;59.61;101638.59;10451018;28;20279;-63
2024/03/20 14:54:52;;;;;;;3.80;1.48;;;;;;;17.91;59.96;101641.28;10448442;28;20289;-63
2024/03/20 14:59:53;;;;;;;3.67;1.80;;;;;;;17.87;60.18;101641.00;10450725;28;20039;-62
2024/03/20 15:04:53;;;;;;;2.37;1.50;;;;;;;17.86;59.50;101641.25;10450310;28;20747;-62
2024/03/20 15:09:54;;;;;;;4.65;1.73;;;;;;;17.88;60.15;101634.59;10447882;28;20287;-64
2024/03/20 15:14:54;;;;;;;10.00;2.23;;;;;;;17.92;60.08;101642.88;10447570;28;20532;-61
2024/03/20 15:19:55;;;;;;;8.27;2.60;;;;;;;17.96;59.85;101639.38;10444419;28;20355;-58
2024/03/20 15:24:55;;;;;;;8.18;2.70;;;;;;;17.95;59.89;101627.06;10437780;28;20017;-62
2024/03/20 15:29:56;;;;;;;15.90;4.40;;;;;;;17.92;60.48;101635.66;10432085;28;20066;-62
2024/03/20 15:34:56;;;;;;;17.90;4.90;;;;;;;17.87;59.95;101630.25;10462359;28;20291;-62
2024/03/20 15:39:56;;;;;;;14.73;5.55;;;;;;;17.83;59.98;101629.19;10448939;28;20056;-61
2024/03/20 15:44:57;;;;;;;19.80;5.57;;;;;;;17.80;59.85;101630.53;10449066;28;20031;-61
2024/03/20 15:49:57;;;;;;;10.67;4.43;;;;;;;17.80;59.91;101622.50;10430751;28;20116;-62
2024/03/20 15:54:59;;;;;;;16.47;4.77;;;;;;;17.79;60.54;101625.44;10449084;28;20397;-61
2024/03/20 16:00:00;;;;;;;19.42;5.60;;;;;;;17.81;60.52;101625.97;10445125;28;20028;-61
2024/03/20 16:05:00;;;;;;;12.18;5.38;;;;;;;17.78;60.35;101630.00;10447408;28;20036;-62
2024/03/20 16:10:03;;;;;;;16.33;5.28;;;;;;;17.78;61.21;101631.91;10445258;28;20016;-62
2024/03/20 16:15:04;;;;;;;10.85;4.85;;;;;;;17.74;59.74;101630.78;10440866;28;20055;-61
2024/03/20 16:20:18;;;;;;;13.52;4.70;;;;;;;17.72;60.80;101630.25;10409492;28;20719;-61
2024/03/20 16:25:19;;;;;;;11.10;4.20;;;;;;;17.69;60.43;101628.94;10415023;28;20025;-60
2024/03/20 16:30:22;;;;;;;7.87;3.93;;;;;;;17.82;61.72;101628.41;10442561;28;20074;-61
2024/03/20 16:35:22;;;;;;;19.00;5.60;;;;;;;17.84;60.38;101628.13;10433167;28;20296;-57
2024/03/20 16:40:25;;;;;;;24.55;5.65;;;;;;;17.79;61.75;101630.81;10455881;28;20120;-57
2024/03/20 16:45:27;;;;;;;14.82;4.88;;;;;;;17.78;62.10;101630.00;10456312;28;20075;-58
2024/03/20 16:50:27;;;;;;;16.27;4.30;;;;;;;17.80;61.04;101625.19;10454386;28;20031;-57
2024/03/20 16:55:27;;;;;;;13.68;3.92;;;;;;;17.79;61.49;101620.09;10450440;28;20048;-60
2024/03/20 17:00:28;;;;;;;17.47;7.57;;;;;;;17.97;61.58;101632.16;10445504;28;20029;-61
2024/03/20 17:05:28;;;;;;;14.88;6.13;;;;;;;18.09;61.88;101627.31;10450557;28;20328;-62
2024/03/20 17:10:31;;;;;;;20.70;6.27;;;;;;;18.33;64.14;101631.03;10453601;28;20033;-62
2024/03/20 17:15:31;;;;;;;19.67;5.15;;;;;;;18.47;63.58;101631.31;10452410;28;20299;-59
2024/03/20 17:20:32;;;;;;;15.57;4.93;;;;;;;18.47;63.97;101636.66;10453823;28;20029;-62
2024/03/20 17:25:34;;;;;;;12.40;5.20;;;;;;;18.44;64.56;101628.34;10454899;28;20388;-58
2024/03/20 17:30:35;;;;;;;16.55;5.25;;;;;;;18.39;63.49;101638.03;10453995;28;20620;-57
2024/03/20 17:35:35;;;;;;;20.23;5.65;;;;;;;18.35;63.47;101636.13;10450453;28;20044;-62
2024/03/20 17:40:35;;;;;;;10.87;4.50;;;;;;;18.31;63.60;101637.75;10452142;28;20039;-62
2024/03/20 17:45:36;;;;;;;14.40;4.85;;;;;;;18.31;64.01;101632.38;10453560;28;20020;-60
2024/03/20 17:50:36;;;;;;;9.73;4.70;;;;;;;18.29;64.01;101632.66;10451942;28;20025;-63
2024/03/20 17:55:37;;;;;;;13.73;4.90;;;;;;;18.18;63.58;101632.94;10452401;28;20369;-62
2024/03/20 18:00:37;;;;;;;10.63;4.53;;;;;;;18.15;64.15;101630.81;10450063;28;20271;-61
2024/03/20 18:05:37;;;;;;;16.23;4.68;;;;;;;18.11;64.10;101633.22;10443741;28;20075;-60
2024/03/20 18:10:39;;;;;;;23.87;5.13;;;;;;;18.07;64.38;101629.47;10452600;28;20021;-64
2024/03/20 18:15:39;;;;;;;14.77;4.20;;;;;;;18.01;63.34;101633.25;10453390;28;20287;-62
2024/03/20 18:20:39;;;;;;;11.48;4.18;;;;;;;17.99;63.25;101646.09;10451552;28;20024;-61
2024/03/20 18:25:40;;;;;;;12.23;3.80;;;;;;;17.96;63.04;101639.38;10452932;28;20058;-61
2024/03/20 18:30:43;;;;;;;12.02;3.80;;;;;;;17.98;63.68;101644.50;10452169;28;20356;-61
2024/03/20 18:35:44;;;;;;;9.43;4.05;;;;;;;18.00;62.87;101632.44;10451207;28;20025;-62
2024/03/20 18:40:44;;;;;;;11.65;3.83;;;;;;;17.94;63.46;101638.06;10450837;28;20043;-62
2024/03/20 18:45:45;;;;;;;6.30;3.10;;;;;;;17.93;62.93;101653.34;10450538;28;20437;-62
2024/03/20 18:50:45;;;;;;;9.45;3.65;;;;;;;17.91;63.47;101660.88;10444121;28;20272;-62
2024/03/20 18:55:45;;;;;;;7.47;3.33;;;;;;;17.91;62.41;101662.75;10410684;28;20119;-61
2024/03/20 19:00:50;;;;;;;11.93;3.67;;;;;;;17.91;62.76;101662.75;10416649;28;20583;-62
2024/03/20 19:05:50;;;;;;;8.90;3.53;;;;;;;17.87;61.78;101658.97;10425871;28;20616;-61
2024/03/20 19:10:51;;;;;;;8.87;3.53;;;;;;;17.87;62.82;101664.34;10434644;28;20045;-62
2024/03/20 19:15:51;;;;;;;7.25;3.20;;;;;;;17.89;62.46;101671.06;10449610;28;21040;-62
2024/03/20 19:20:51;;;;;;;6.78;3.63;;;;;;;17.93;62.11;101682.88;10433581;28;20468;-63
2024/03/20 19:25:52;;;;;;;6.80;2.73;;;;;;;17.94;62.57;101683.66;10424243;28;20032;-63
2024/03/20 19:30:52;;;;;;;8.27;3.65;;;;;;;17.95;61.73;101696.00;10454559;28;20273;-61
2024/03/20 19:35:57;;;;;;;10.13;4.10;;;;;;;17.93;61.42;101701.66;10452260;28;20029;-61
2024/03/20 19:40:57;;;;;;;6.40;2.65;;;;;;;17.93;61.38;101700.84;10447471;28;20347;-60
2024/03/20 19:45:58;;;;;;;6.27;2.90;;;;;;;17.89;61.19;101699.78;10450399;28;20025;-61
2024/03/20 19:50:59;;;;;;;5.87;3.00;;;;;;;17.91;61.70;101713.72;10420596;28;20291;-61
2024/03/20 19:55:59;;;;;;;5.05;2.40;;;;;;;17.87;62.14;101710.75;10411929;28;20686;-61
2024/03/20 20:01:00;;;;;;;11.60;3.22;;;;;;;17.88;61.83;101708.88;10415921;28;20020;-60
2024/03/20 20:06:00;;;;;;;5.40;2.30;;;;;;;17.87;61.38;101707.25;10455552;28;20025;-60
2024/03/20 20:11:01;;;;;;;6.47;2.83;;;;;;;17.87;60.86;101715.31;10455935;28;20291;-59
2024/03/20 20:16:05;;;;;;;7.75;2.40;;;;;;;17.85;60.73;101712.09;10448574;28;20570;-60
2024/03/20 20:21:06;;;;;;;7.18;2.10;;;;;;;17.83;61.00;101721.22;10440014;28;20017;-59
2024/03/20 20:26:06;;;;;;;4.50;2.00;;;;;;;17.85;61.22;101720.16;10429963;28;20033;-59
2024/03/20 20:31:07;;;;;;;7.10;3.03;;;;;;;17.86;60.85;101735.16;10458940;28;20773;-60
2024/03/20 20:36:13;;;;;;;4.85;2.60;;;;;;;17.84;60.29;101735.44;10451917;28;20291;-60
2024/03/20 20:41:13;;;;;;;5.95;2.03;;;;;;;17.83;60.38;101745.38;10448501;28;20031;-60
2024/03/20 20:46:18;;;;;;;3.58;1.95;;;;;;;17.85;60.75;101752.34;10451989;28;20029;-60
2024/03/20 20:51:18;;;;;;;4.22;1.70;;;;;;;17.87;60.43;101758.25;10453463;28;20021;-59
2024/03/20 20:56:18;;;;;;;3.60;1.80;;;;;;;17.88;60.24;101757.16;10454736;28;20028;-60
2024/03/20 21:01:19;;;;;;;4.97;2.10;;;;;;;17.85;60.42;101766.56;10455049;28;20028;-60
2024/03/20 21:22:16;;;;;;;3.10;1.73;;;;;;;17.84;61.05;101762.25;10455530;28;20060;-61
2024/03/20 21:27:18;;;;;;;3.92;2.10;;;;;;;17.84;61.29;101773.00;10452496;28;20509;-59
2024/03/20 21:32:20;;;;;;;5.22;2.00;;;;;;;17.84;60.74;101775.69;10464991;28;20036;-60
2024/03/20 21:37:20;;;;;;;2.30;1.50;;;;;;;17.83;61.56;101769.50;10452797;28;20032;-60
2024/03/20 21:42:20;;;;;;;6.25;3.13;;;;;;;17.83;60.61;101777.56;10452287;28;20032;-60
2024/03/20 21:47:21;;;;;;;3.97;1.98;;;;;;;17.83;60.31;101774.88;10452045;28;20021;-60
2024/03/20 21:52:22;;;;;;;5.18;1.90;;;;;;;17.81;60.73;101782.38;10431699;28;20033;-59
2024/03/20 21:57:22;;;;;;;2.90;1.77;;;;;;;17.82;60.70;101773.25;10412892;28;20033;-60
2024/03/20 22:02:23;;;;;;;3.43;1.67;;;;;;;17.82;61.02;101775.16;10412560;28;20283;-60
2024/03/20 22:07:24;;;;;;;3.65;1.88;;;;;;;17.80;60.48;101769.25;10412369;28;20750;-59
2024/03/20 22:12:24;;;;;;;4.40;2.30;;;;;;;17.81;61.12;101779.69;10436731;28;20056;-59
2024/03/20 22:17:24;;;;;;;3.30;2.10;;;;;;;17.80;60.20;101770.03;10451595;28;20029;-60
2024/03/20 22:22:25;;;;;;;5.40;2.50;;;;;;;17.80;61.15;101775.41;10451117;28;20025;-60
2024/03/20 22:27:25;;;;;;;3.53;2.20;;;;;;;17.79;61.31;101776.47;10425440;28;20287;-59
2024/03/20 22:32:25;;;;;;;4.63;1.88;;;;;;;17.79;60.00;101778.38;10452303;28;20446;-60
2024/03/20 22:37:26;;;;;;;3.50;1.93;;;;;;;17.78;60.71;101769.50;10447440;28;20413;-60
2024/03/20 22:42:26;;;;;;;3.00;1.83;;;;;;;17.79;61.38;101770.31;10410860;28;20291;-60
2024/03/20 22:47:27;;;;;;;4.17;1.77;;;;;;;17.78;60.22;101772.19;10423230;28;20025;-60
2024/03/20 22:52:27;;;;;;;4.93;2.00;;;;;;;17.77;60.81;101759.03;10409060;28;20295;-60
2024/03/20 22:57:27;;;;;;;2.60;1.70;;;;;;;17.76;59.90;101766.28;10410619;28;20030;-60
2024/03/20 23:02:28;;;;;;;2.50;1.43;;;;;;;17.75;61.39;101767.34;10410116;28;20279;-60
2024/03/20 23:07:28;;;;;;;2.73;1.60;;;;;;;17.73;60.67;101761.44;10410322;28;20740;-60
2024/03/20 23:12:28;;;;;;;3.73;2.10;;;;;;;17.74;59.95;101763.03;10435604;28;20287;-60